Time;durP1;ratioP1;P1;durP2;ratioP2;P2;SDS_P1;SDS_P2;PMS_P1;PMS_P2;Temp;Humidity;BMP_temperature;BMP_pressure;BME280_temperature;BME280_humidity;BME280_pressure;Samples;Min_cycle;Max_cycle;Signal;HPM_P1;HPM_P2
2022/02/18 00:00:27;;;;;;;7.20;5.70;;;;;21.50;100003.00;;;;2085752;28;20243;-48
2022/02/18 00:01:28;;;;;;;7.40;6.00;;;;;21.50;100003.00;;;;2087400;28;20213;-48
2022/02/18 00:02:28;;;;;;;6.73;5.70;;;;;21.50;100000.00;;;;2087060;28;20572;-49
2022/02/18 00:03:28;;;;;;;9.60;6.50;;;;;21.50;100002.00;;;;2087056;28;20271;-48
2022/02/18 00:04:29;;;;;;;7.10;6.00;;;;;21.50;99987.00;;;;2086553;28;20221;-48
2022/02/18 00:05:29;;;;;;;9.03;6.03;;;;;21.50;100003.00;;;;2087410;28;20255;-48
2022/02/18 00:06:30;;;;;;;7.80;5.80;;;;;21.50;99999.00;;;;2087323;28;20221;-48
2022/02/18 00:07:30;;;;;;;6.87;5.60;;;;;21.50;99989.00;;;;2086732;28;20252;-48
2022/02/18 00:08:31;;;;;;;7.10;5.80;;;;;21.50;99995.00;;;;2085143;28;20498;-48
2022/02/18 00:09:31;;;;;;;7.70;5.57;;;;;21.50;99994.00;;;;2078958;28;20209;-48
2022/02/18 00:10:31;;;;;;;7.03;5.10;;;;;21.50;99990.00;;;;2073726;28;20317;-48
2022/02/18 00:11:32;;;;;;;6.90;4.57;;;;;21.50;99977.00;;;;2078055;28;20216;-47
2022/02/18 00:12:32;;;;;;;8.27;5.53;;;;;21.50;99986.00;;;;2080160;28;20342;-47
2022/02/18 00:13:33;;;;;;;8.17;5.90;;;;;21.50;99991.00;;;;2087459;28;21422;-48
2022/02/18 00:14:34;;;;;;;7.80;5.65;;;;;21.50;99991.00;;;;2084346;28;20737;-48
2022/02/18 00:15:34;;;;;;;8.03;4.87;;;;;21.50;99980.00;;;;2078880;28;20245;-47
2022/02/18 00:16:34;;;;;;;7.60;5.27;;;;;21.50;99992.00;;;;2079126;28;20252;-48
2022/02/18 00:17:36;;;;;;;6.57;4.77;;;;;21.50;99978.00;;;;2079404;28;20213;-49
2022/02/18 00:18:36;;;;;;;7.38;5.22;;;;;21.40;99981.00;;;;2077903;28;20233;-48
2022/02/18 00:19:37;;;;;;;7.83;5.50;;;;;21.40;99982.00;;;;2078632;28;20209;-47
2022/02/18 00:20:38;;;;;;;6.77;4.40;;;;;21.40;99986.00;;;;2078173;28;20221;-48
2022/02/18 00:21:38;;;;;;;6.23;5.10;;;;;21.40;99988.00;;;;2078900;28;20225;-46
2022/02/18 00:22:38;;;;;;;8.43;4.93;;;;;21.40;99989.00;;;;2079327;28;20452;-48
2022/02/18 00:23:39;;;;;;;7.23;4.83;;;;;21.40;99982.00;;;;2079157;28;20248;-48
2022/02/18 00:24:39;;;;;;;6.07;5.00;;;;;21.40;99993.00;;;;2079147;28;20743;-48
2022/02/18 00:25:40;;;;;;;7.03;5.17;;;;;21.40;99988.00;;;;2078832;28;20220;-48
2022/02/18 00:26:40;;;;;;;9.73;5.13;;;;;21.40;99996.00;;;;2078444;28;20218;-47
2022/02/18 00:27:41;;;;;;;5.90;4.40;;;;;21.40;100002.00;;;;2078752;28;20205;-47
2022/02/18 00:28:41;;;;;;;5.73;4.17;;;;;21.40;99992.00;;;;2078800;28;20213;-48
2022/02/18 00:29:42;;;;;;;6.00;4.70;;;;;21.40;99993.00;;;;2079241;28;20213;-48
2022/02/18 00:30:42;;;;;;;6.73;4.70;;;;;21.40;99969.00;;;;2077515;28;20308;-48
2022/02/18 00:31:43;;;;;;;5.83;4.43;;;;;21.40;99985.00;;;;2078418;28;20224;-46
2022/02/18 00:32:43;;;;;;;8.17;4.80;;;;;21.40;99988.00;;;;2079654;28;20206;-48
2022/02/18 00:33:44;;;;;;;7.03;4.57;;;;;21.40;99995.00;;;;2080537;28;20217;-47
2022/02/18 00:34:44;;;;;;;5.30;4.57;;;;;21.40;99988.00;;;;2079031;28;20216;-48
2022/02/18 00:35:44;;;;;;;8.10;4.50;;;;;21.40;99993.00;;;;2077982;28;20241;-48
2022/02/18 00:36:45;;;;;;;8.33;4.83;;;;;21.40;99986.00;;;;2078921;28;20237;-48
2022/02/18 00:37:54;;;;;;;6.63;4.90;;;;;21.40;99990.00;;;;2079334;28;20217;-48
2022/02/18 00:38:55;;;;;;;7.00;4.75;;;;;21.40;99978.00;;;;2079118;28;20244;-47
2022/02/18 00:39:56;;;;;;;6.53;4.30;;;;;21.40;99990.00;;;;2079189;28;20292;-48
2022/02/18 00:40:57;;;;;;;6.03;4.10;;;;;21.40;99993.00;;;;2078234;28;20253;-48
2022/02/18 00:41:57;;;;;;;7.23;4.70;;;;;21.40;99991.00;;;;2078903;28;20717;-48
2022/02/18 00:42:57;;;;;;;8.10;4.63;;;;;21.40;99992.00;;;;2078404;28;20236;-48
2022/02/18 00:43:58;;;;;;;7.67;4.17;;;;;21.40;99987.00;;;;2079163;28;20209;-48
2022/02/18 00:44:58;;;;;;;7.33;4.97;;;;;21.40;99995.00;;;;2078865;28;20206;-48
2022/02/18 00:45:59;;;;;;;5.67;3.90;;;;;21.40;99996.00;;;;2078929;28;20228;-49
2022/02/18 00:46:59;;;;;;;5.90;4.27;;;;;21.40;99995.00;;;;2079047;28;20697;-48
2022/02/18 00:48:00;;;;;;;6.07;4.27;;;;;21.40;99995.00;;;;2080885;28;20871;-48
2022/02/18 00:49:01;;;;;;;6.55;4.55;;;;;21.40;99993.00;;;;2087469;28;20212;-48
2022/02/18 00:50:01;;;;;;;7.63;4.50;;;;;21.40;100003.00;;;;2087224;28;20304;-47
2022/02/18 00:51:01;;;;;;;5.43;3.77;;;;;21.40;99999.00;;;;2086281;28;20212;-48
2022/02/18 00:52:02;;;;;;;6.87;4.50;;;;;21.40;100006.00;;;;2086869;28;20228;-48
2022/02/18 00:53:03;;;;;;;6.83;4.03;;;;;21.40;100005.00;;;;2080690;28;20252;-48
2022/02/18 00:54:03;;;;;;;5.10;4.10;;;;;21.40;99995.00;;;;2078881;28;20233;-48
2022/02/18 00:55:04;;;;;;;5.87;3.90;;;;;21.40;99997.00;;;;2078860;28;20581;-47
2022/02/18 00:56:04;;;;;;;6.90;4.20;;;;;21.40;99998.00;;;;2078981;28;20844;-47
2022/02/18 00:57:05;;;;;;;6.90;4.60;;;;;21.30;99995.00;;;;2079121;28;20491;-47
2022/02/18 00:58:05;;;;;;;5.83;3.67;;;;;21.40;99994.00;;;;2078533;28;20237;-48
2022/02/18 00:59:08;;;;;;;6.27;4.27;;;;;21.30;99995.00;;;;2079105;28;20247;-48
2022/02/18 01:00:10;;;;;;;7.07;3.83;;;;;21.30;100002.00;;;;2078732;28;20218;-48
2022/02/18 01:01:10;;;;;;;5.47;3.60;;;;;21.30;100001.00;;;;2077957;28;20221;-48
2022/02/18 01:02:11;;;;;;;7.87;4.10;;;;;21.30;100008.00;;;;2078822;28;20308;-47
2022/02/18 01:03:11;;;;;;;5.60;3.80;;;;;21.30;99995.00;;;;2078172;28;20221;-48
2022/02/18 01:04:12;;;;;;;6.07;3.70;;;;;21.30;99993.00;;;;2077052;28;20221;-48
2022/02/18 01:05:13;;;;;;;5.90;4.10;;;;;21.30;99991.00;;;;2078873;28;20751;-48
2022/02/18 01:06:13;;;;;;;5.68;3.75;;;;;21.30;99991.00;;;;2069861;28;20732;-48
2022/02/18 01:07:14;;;;;;;7.60;3.90;;;;;21.30;99989.00;;;;2069423;28;20214;-48
2022/02/18 01:08:14;;;;;;;6.57;4.00;;;;;21.30;99982.00;;;;2078993;28;20225;-47
2022/02/18 01:09:14;;;;;;;5.47;3.23;;;;;21.30;99972.00;;;;2078731;28;20222;-47
2022/02/18 01:10:15;;;;;;;5.80;3.40;;;;;21.30;99968.00;;;;2078071;28;20237;-48
2022/02/18 01:11:15;;;;;;;5.47;3.53;;;;;21.30;99976.00;;;;2078512;28;20271;-47
2022/02/18 01:12:16;;;;;;;6.63;3.60;;;;;21.30;99965.00;;;;2080064;28;20217;-48
2022/02/18 01:13:16;;;;;;;5.37;3.47;;;;;21.30;99964.00;;;;2086258;28;20689;-49
2022/02/18 01:14:16;;;;;;;6.47;3.93;;;;;21.30;99956.00;;;;2087079;28;20224;-48
2022/02/18 01:15:17;;;;;;;6.47;3.57;;;;;21.30;99961.00;;;;2087053;28;20213;-48
2022/02/18 01:16:17;;;;;;;6.40;3.50;;;;;21.30;99964.00;;;;2081446;28;20237;-48
2022/02/18 01:17:18;;;;;;;6.10;3.70;;;;;21.30;99962.00;;;;2078659;28;20223;-49
2022/02/18 01:18:20;;;;;;;6.17;3.43;;;;;21.30;99971.00;;;;2078951;28;20568;-48
2022/02/18 01:19:21;;;;;;;6.78;3.53;;;;;21.30;99966.00;;;;2078873;28;20225;-48
2022/02/18 01:20:22;;;;;;;5.10;3.30;;;;;21.30;99960.00;;;;2078370;28;20301;-48
2022/02/18 01:21:22;;;;;;;7.28;3.47;;;;;21.30;99968.00;;;;2078065;28;20214;-48
2022/02/18 01:22:22;;;;;;;6.27;3.00;;;;;21.30;99957.00;;;;2081550;28;20219;-48
2022/02/18 01:23:23;;;;;;;5.10;3.43;;;;;21.30;99965.00;;;;2087034;28;20213;-48
2022/02/18 01:24:24;;;;;;;6.83;3.57;;;;;21.30;99957.00;;;;2086959;28;20216;-48
2022/02/18 01:25:24;;;;;;;5.00;3.53;;;;;21.30;99957.00;;;;2086899;28;20224;-48
2022/02/18 01:26:24;;;;;;;6.40;3.40;;;;;21.30;99956.00;;;;2087001;28;20487;-48
2022/02/18 01:27:25;;;;;;;5.70;3.70;;;;;21.30;99959.00;;;;2086348;28;20681;-48
2022/02/18 01:28:25;;;;;;;5.33;3.03;;;;;21.30;99963.00;;;;2086183;28;20716;-48
2022/02/18 01:29:26;;;;;;;7.33;2.90;;;;;21.30;99960.00;;;;2086017;28;21645;-53
2022/02/18 01:30:26;;;;;;;7.00;3.47;;;;;21.30;99965.00;;;;2086079;28;20227;-49
2022/02/18 01:31:26;;;;;;;5.90;3.40;;;;;21.30;99964.00;;;;2086715;28;20292;-48
2022/02/18 01:32:27;;;;;;;6.30;3.40;;;;;21.20;99953.00;;;;2086698;28;20616;-48
2022/02/18 01:33:27;;;;;;;6.67;3.40;;;;;21.30;99948.00;;;;2086905;28;20212;-49
2022/02/18 01:34:28;;;;;;;5.83;3.67;;;;;21.30;99932.00;;;;2080749;28;20221;-48
2022/02/18 01:35:28;;;;;;;5.77;3.47;;;;;21.20;99950.00;;;;2078785;28;20221;-48
2022/02/18 01:36:28;;;;;;;5.20;3.50;;;;;21.20;99939.00;;;;2078484;28;20234;-48
2022/02/18 01:37:29;;;;;;;7.20;3.20;;;;;21.20;99942.00;;;;2077546;28;20217;-48
2022/02/18 01:38:30;;;;;;;6.80;3.43;;;;;21.20;99935.00;;;;2077877;28;20217;-47
2022/02/18 01:39:30;;;;;;;6.60;3.60;;;;;21.20;99940.00;;;;2077917;28;20220;-48
2022/02/18 01:40:31;;;;;;;4.50;2.70;;;;;21.20;99929.00;;;;2078005;28;20328;-49
2022/02/18 01:41:31;;;;;;;6.30;3.50;;;;;21.20;99931.00;;;;2078608;28;20224;-48
2022/02/18 01:42:31;;;;;;;6.10;3.40;;;;;21.20;99933.00;;;;2078574;28;20210;-47
2022/02/18 01:43:32;;;;;;;5.27;3.13;;;;;21.20;99934.00;;;;2078903;28;20213;-48
2022/02/18 01:44:37;;;;;;;6.03;3.13;;;;;21.20;99931.00;;;;2078706;28;20210;-48
2022/02/18 01:45:37;;;;;;;6.38;2.90;;;;;21.20;99928.00;;;;2078464;28;20210;-47
2022/02/18 01:46:38;;;;;;;6.00;2.70;;;;;21.20;99926.00;;;;2078526;28;20705;-48
2022/02/18 01:47:38;;;;;;;5.73;3.10;;;;;21.20;99935.00;;;;2078515;28;20208;-48
2022/02/18 01:48:38;;;;;;;6.80;3.10;;;;;21.20;99931.00;;;;2078807;28;20201;-48
2022/02/18 01:49:39;;;;;;;7.70;3.83;;;;;21.20;99929.00;;;;2078688;28;20244;-48
2022/02/18 01:50:40;;;;;;;5.33;3.03;;;;;21.20;99946.00;;;;2077144;28;20213;-48
2022/02/18 01:51:40;;;;;;;5.87;3.17;;;;;21.20;99934.00;;;;2077830;28;21016;-48
2022/02/18 01:52:44;;;;;;;6.00;3.00;;;;;21.20;99929.00;;;;2076375;28;20545;-47
2022/02/18 01:53:44;;;;;;;5.03;3.08;;;;;21.20;99931.00;;;;2078541;28;20201;-48
2022/02/18 01:54:45;;;;;;;5.20;2.97;;;;;21.20;99936.00;;;;2078656;28;20305;-48
2022/02/18 01:55:45;;;;;;;4.77;2.80;;;;;21.20;99929.00;;;;2078019;28;20206;-48
2022/02/18 01:56:45;;;;;;;5.70;2.67;;;;;21.20;99932.00;;;;2077917;28;20730;-48
2022/02/18 01:57:54;;;;;;;6.17;3.07;;;;;21.20;99934.00;;;;2084106;28;20723;-47
2022/02/18 01:58:54;;;;;;;7.00;3.55;;;;;21.20;99939.00;;;;2087002;28;20281;-48
2022/02/18 01:59:55;;;;;;;5.43;3.03;;;;;21.20;99930.00;;;;2086630;28;20270;-48
2022/02/18 02:00:55;;;;;;;5.80;3.17;;;;;21.20;99917.00;;;;2084750;28;20216;-47
2022/02/18 02:01:58;;;;;;;5.63;2.47;;;;;21.20;99921.00;;;;2085316;28;20244;-48
2022/02/18 02:02:59;;;;;;;4.55;2.67;;;;;21.20;99928.00;;;;2086859;28;20219;-47
2022/02/18 02:03:59;;;;;;;5.97;3.30;;;;;21.20;99923.00;;;;2086695;28;20256;-48
2022/02/18 02:04:59;;;;;;;5.17;3.37;;;;;21.20;99927.00;;;;2086844;28;20232;-47
2022/02/18 02:06:00;;;;;;;5.83;2.83;;;;;21.20;99927.00;;;;2086040;28;20214;-49
2022/02/18 02:07:05;;;;;;;4.93;2.90;;;;;21.20;99929.00;;;;2085933;28;20311;-47
2022/02/18 02:08:06;;;;;;;7.20;3.15;;;;;21.20;99918.00;;;;2079578;28;20211;-47
2022/02/18 02:09:07;;;;;;;4.90;2.80;;;;;21.20;99928.00;;;;2078845;28;20603;-48
2022/02/18 02:10:08;;;;;;;5.60;2.83;;;;;21.20;99925.00;;;;2075081;28;20217;-48
2022/02/18 02:11:08;;;;;;;5.10;2.83;;;;;21.20;99929.00;;;;2077722;28;20214;-47
2022/02/18 02:12:09;;;;;;;4.80;2.77;;;;;21.20;99930.00;;;;2078159;28;20246;-47
2022/02/18 02:13:09;;;;;;;6.47;3.30;;;;;21.10;99922.00;;;;2077405;28;20464;-48
2022/02/18 02:14:10;;;;;;;7.07;3.10;;;;;21.10;99916.00;;;;2077279;28;20241;-49
2022/02/18 02:15:11;;;;;;;5.77;2.97;;;;;21.10;99912.00;;;;2078281;28;20683;-48
2022/02/18 02:16:12;;;;;;;8.30;2.90;;;;;21.10;99913.00;;;;2077330;28;20251;-48
2022/02/18 02:17:12;;;;;;;5.82;3.00;;;;;21.20;99918.00;;;;2071983;28;20623;-48
2022/02/18 02:18:13;;;;;;;4.63;2.80;;;;;21.20;99917.00;;;;2085887;28;20235;-48
2022/02/18 02:19:13;;;;;;;5.20;3.00;;;;;21.10;99912.00;;;;2081583;28;20263;-47
2022/02/18 02:20:14;;;;;;;4.93;2.50;;;;;21.10;99915.00;;;;2080979;28;20213;-48
2022/02/18 02:21:14;;;;;;;7.40;2.80;;;;;21.10;99908.00;;;;2081117;28;20227;-47
2022/02/18 02:22:15;;;;;;;6.00;2.60;;;;;21.10;99910.00;;;;2080777;28;20300;-47
2022/02/18 02:23:16;;;;;;;6.67;3.27;;;;;21.10;99915.00;;;;2080343;28;20232;-47
2022/02/18 02:24:17;;;;;;;5.57;2.47;;;;;21.10;99909.00;;;;2086092;28;20217;-47
2022/02/18 02:25:17;;;;;;;5.78;2.90;;;;;21.10;99906.00;;;;2085912;28;20535;-47
2022/02/18 02:26:19;;;;;;;5.70;2.87;;;;;21.10;99904.00;;;;2085596;28;20220;-48
2022/02/18 02:27:20;;;;;;;6.03;2.90;;;;;21.10;99908.00;;;;2086425;28;20594;-48
2022/02/18 02:28:20;;;;;;;4.20;2.90;;;;;21.10;99904.00;;;;2085567;28;20213;-49
2022/02/18 02:29:21;;;;;;;4.80;2.97;;;;;21.10;99900.00;;;;2084364;28;20215;-47
2022/02/18 02:30:21;;;;;;;5.20;2.80;;;;;21.10;99893.00;;;;2085792;28;20228;-49
2022/02/18 02:31:22;;;;;;;5.80;3.03;;;;;21.10;99895.00;;;;2085889;28;20194;-48
2022/02/18 02:32:23;;;;;;;5.97;2.72;;;;;21.10;99898.00;;;;2084593;28;20213;-49
2022/02/18 02:33:23;;;;;;;4.83;2.60;;;;;21.10;99893.00;;;;2086674;28;20303;-48
2022/02/18 02:34:24;;;;;;;5.03;3.07;;;;;21.10;99888.00;;;;2086609;28;20693;-48
2022/02/18 02:35:24;;;;;;;4.83;2.63;;;;;21.10;99879.00;;;;2086656;28;20206;-48
2022/02/18 02:36:24;;;;;;;4.73;2.50;;;;;21.10;99875.00;;;;2078221;28;20209;-48
2022/02/18 02:37:25;;;;;;;7.70;3.20;;;;;21.10;99883.00;;;;2077923;28;20243;-47
2022/02/18 02:38:25;;;;;;;5.73;2.60;;;;;21.10;99883.00;;;;2077115;28;20213;-47
2022/02/18 02:39:25;;;;;;;5.40;2.77;;;;;21.10;99890.00;;;;2078678;28;20640;-46
2022/02/18 02:40:26;;;;;;;5.10;2.70;;;;;21.10;99847.00;;;;2077532;28;20240;-48
2022/02/18 02:41:26;;;;;;;5.60;2.57;;;;;21.10;99880.00;;;;2078477;28;20216;-47
2022/02/18 02:42:26;;;;;;;5.03;2.60;;;;;21.10;99876.00;;;;2078549;28;20205;-48
2022/02/18 02:43:28;;;;;;;5.20;2.60;;;;;21.10;99874.00;;;;2078280;28;20395;-48
2022/02/18 02:44:28;;;;;;;5.00;2.35;;;;;21.10;99866.00;;;;2078229;28;20641;-47
2022/02/18 02:45:29;;;;;;;5.70;2.70;;;;;21.10;99863.00;;;;2083456;28;20217;-48
2022/02/18 02:46:29;;;;;;;5.93;2.63;;;;;21.10;99864.00;;;;2086535;28;20236;-48
2022/02/18 02:47:31;;;;;;;5.90;2.60;;;;;21.10;99858.00;;;;2074351;28;20349;-48
2022/02/18 02:48:32;;;;;;;5.85;2.60;;;;;21.10;99852.00;;;;2067812;28;20586;-48
2022/02/18 02:49:32;;;;;;;4.00;2.10;;;;;21.10;99854.00;;;;2078503;28;20221;-47
2022/02/18 02:50:33;;;;;;;5.63;2.93;;;;;21.10;99845.00;;;;2077489;28;20312;-47
2022/02/18 02:51:33;;;;;;;7.90;2.57;;;;;21.10;99847.00;;;;2073732;28;20222;-47
2022/02/18 02:52:33;;;;;;;6.73;2.73;;;;;21.10;99845.00;;;;2077911;28;20217;-48
2022/02/18 02:53:34;;;;;;;5.47;2.50;;;;;21.10;99839.00;;;;2078360;28;20235;-47
2022/02/18 02:54:34;;;;;;;6.07;2.60;;;;;21.00;99827.00;;;;2077544;28;20213;-48
2022/02/18 02:55:34;;;;;;;5.90;2.80;;;;;21.10;99831.00;;;;2077737;28;20220;-48
2022/02/18 02:56:35;;;;;;;6.20;2.60;;;;;21.10;99827.00;;;;2077540;28;20217;-48
2022/02/18 02:57:35;;;;;;;5.20;2.87;;;;;21.10;99828.00;;;;2078586;28;20240;-47
2022/02/18 02:58:37;;;;;;;6.33;2.77;;;;;21.00;99827.00;;;;2078338;28;20729;-47
2022/02/18 02:59:37;;;;;;;4.50;2.38;;;;;21.00;99826.00;;;;2077624;28;20292;-47
2022/02/18 03:00:38;;;;;;;6.50;2.60;;;;;21.10;99778.00;;;;2076891;28;20705;-47
2022/02/18 03:01:38;;;;;;;5.63;2.93;;;;;21.10;99824.00;;;;2077001;28;20233;-48
2022/02/18 03:02:39;;;;;;;4.57;2.70;;;;;21.10;99826.00;;;;2077637;28;20222;-48
2022/02/18 03:03:39;;;;;;;6.27;2.77;;;;;21.00;99820.00;;;;2077651;28;20220;-49
2022/02/18 03:04:39;;;;;;;3.63;2.30;;;;;21.00;99820.00;;;;2077715;28;20220;-47
2022/02/18 03:05:40;;;;;;;5.40;2.67;;;;;21.10;99825.00;;;;2078321;28;20218;-48
2022/02/18 03:06:40;;;;;;;3.77;2.27;;;;;21.00;99809.00;;;;2083592;28;20232;-48
2022/02/18 03:07:41;;;;;;;5.23;2.50;;;;;21.10;99819.00;;;;2083163;28;20217;-48
2022/02/18 03:08:42;;;;;;;4.40;2.40;;;;;21.00;99837.00;;;;2077590;28;20224;-53
2022/02/18 03:09:42;;;;;;;6.00;2.70;;;;;21.00;99810.00;;;;2074915;28;20460;-48
2022/02/18 03:11:14;;;;;;;5.60;2.53;;;;;21.00;99822.00;;;;2077225;28;20652;-49
2022/02/18 03:12:03;;;;;;;6.40;2.40;;;;;21.00;99810.00;;;;2078103;28;20221;-49
2022/02/18 03:13:04;;;;;;;6.27;2.63;;;;;21.00;99804.00;;;;2084389;28;20580;-48
2022/02/18 03:14:04;;;;;;;4.30;2.40;;;;;21.00;99802.00;;;;2086087;28;20217;-48
2022/02/18 03:15:05;;;;;;;7.10;2.73;;;;;21.00;99797.00;;;;2086312;28;20633;-48
2022/02/18 03:16:05;;;;;;;6.57;2.63;;;;;21.00;99807.00;;;;2086607;28;20208;-48
2022/02/18 03:17:06;;;;;;;7.23;2.70;;;;;21.00;99804.00;;;;2086189;28;20223;-48
2022/02/18 03:18:06;;;;;;;4.03;2.27;;;;;21.00;99808.00;;;;2086496;28;20216;-47
2022/02/18 03:19:07;;;;;;;5.27;2.77;;;;;21.00;99801.00;;;;2085670;28;20213;-48
2022/02/18 03:20:08;;;;;;;5.30;2.53;;;;;21.00;99800.00;;;;2085808;28;20221;-48
2022/02/18 03:21:08;;;;;;;3.80;2.25;;;;;21.00;99796.00;;;;2085243;28;20471;-48
2022/02/18 03:22:09;;;;;;;4.67;2.20;;;;;21.00;99798.00;;;;2086063;28;20216;-48
2022/02/18 03:23:09;;;;;;;7.17;3.07;;;;;21.00;99793.00;;;;2085993;28;20232;-48
2022/02/18 03:24:10;;;;;;;5.50;2.60;;;;;21.00;99787.00;;;;2086294;28;20342;-48
2022/02/18 03:25:11;;;;;;;5.83;2.77;;;;;21.00;99787.00;;;;2087569;28;20692;-47
2022/02/18 03:26:12;;;;;;;4.80;2.27;;;;;21.00;99794.00;;;;2088003;28;20597;-48
2022/02/18 03:27:12;;;;;;;5.47;2.40;;;;;21.00;99800.00;;;;2087855;28;20213;-49
2022/02/18 03:28:13;;;;;;;4.93;2.27;;;;;21.00;99792.00;;;;2087300;28;20649;-48
2022/02/18 03:29:13;;;;;;;5.20;2.53;;;;;21.00;99786.00;;;;2087918;28;20835;-48
2022/02/18 03:30:15;;;;;;;6.63;2.20;;;;;21.00;99791.00;;;;2087928;28;20244;-48
2022/02/18 03:31:15;;;;;;;4.20;2.53;;;;;21.00;99781.00;;;;2087222;28;20217;-48
2022/02/18 03:32:16;;;;;;;5.10;2.23;;;;;21.00;99777.00;;;;2087946;28;20220;-48
2022/02/18 03:33:16;;;;;;;7.33;3.10;;;;;21.00;99777.00;;;;2087576;28;20224;-50
2022/02/18 03:34:17;;;;;;;5.07;2.67;;;;;21.00;99772.00;;;;2087215;28;20215;-51
2022/02/18 03:35:17;;;;;;;4.70;2.33;;;;;21.00;99774.00;;;;2087277;28;20243;-48
2022/02/18 03:36:17;;;;;;;7.67;2.53;;;;;21.00;99776.00;;;;2081688;28;20209;-48
2022/02/18 03:37:18;;;;;;;6.40;2.80;;;;;21.00;99769.00;;;;2079303;28;20206;-49
2022/02/18 03:38:18;;;;;;;4.43;2.00;;;;;21.00;99771.00;;;;2079741;28;20236;-49
2022/02/18 03:39:18;;;;;;;3.87;2.23;;;;;21.00;99772.00;;;;2079773;28;20213;-49
2022/02/18 03:40:19;;;;;;;6.07;2.60;;;;;21.00;99769.00;;;;2079201;28;20221;-48
2022/02/18 03:41:19;;;;;;;5.47;2.40;;;;;21.00;99765.00;;;;2078038;28;20221;-48
2022/02/18 03:42:19;;;;;;;5.70;2.70;;;;;21.00;99759.00;;;;2079223;28;20228;-47
2022/02/18 03:43:20;;;;;;;5.33;2.60;;;;;21.00;99760.00;;;;2079082;28;20213;-48
2022/02/18 03:44:21;;;;;;;6.73;2.80;;;;;21.00;99755.00;;;;2078767;28;20220;-49
2022/02/18 03:45:21;;;;;;;5.83;2.70;;;;;21.00;99750.00;;;;2083826;28;20562;-48
2022/02/18 03:46:21;;;;;;;5.60;2.77;;;;;21.00;99741.00;;;;2086741;28;20220;-48
2022/02/18 03:47:23;;;;;;;5.07;2.70;;;;;21.00;99735.00;;;;2087863;28;20576;-48
2022/02/18 03:48:23;;;;;;;5.15;2.30;;;;;20.90;99736.00;;;;2083587;28;20304;-47
2022/02/18 03:49:24;;;;;;;6.67;2.60;;;;;20.90;99730.00;;;;2079403;28;20232;-48
2022/02/18 03:50:24;;;;;;;7.90;2.60;;;;;21.00;99734.00;;;;2078958;28;20216;-49
2022/02/18 03:51:25;;;;;;;4.47;2.03;;;;;20.90;99723.00;;;;2079349;28;20206;-48
2022/02/18 03:52:25;;;;;;;5.13;2.30;;;;;20.90;99726.00;;;;2079706;28;20202;-48
2022/02/18 03:53:26;;;;;;;5.53;2.77;;;;;20.90;99726.00;;;;2079492;28;20210;-48
2022/02/18 03:54:26;;;;;;;4.50;2.60;;;;;20.90;99721.00;;;;2079291;28;20227;-48
2022/02/18 03:55:27;;;;;;;4.57;2.30;;;;;20.90;99719.00;;;;2078777;28;20444;-48
2022/02/18 03:56:27;;;;;;;5.70;2.17;;;;;20.90;99727.00;;;;2078736;28;20701;-47
2022/02/18 03:57:28;;;;;;;6.70;2.90;;;;;20.90;99717.00;;;;2078179;28;20237;-48
2022/02/18 03:58:28;;;;;;;5.10;2.60;;;;;20.90;99713.00;;;;2079639;28;20213;-48
2022/02/18 03:59:28;;;;;;;9.00;3.00;;;;;20.90;99721.00;;;;2078646;28;20586;-47
2022/02/18 04:00:29;;;;;;;4.87;2.03;;;;;20.90;99717.00;;;;2077982;28;20644;-47
2022/02/18 04:01:29;;;;;;;5.33;2.67;;;;;20.90;99713.00;;;;2079027;28;20221;-48
2022/02/18 04:02:30;;;;;;;6.23;2.83;;;;;20.90;99715.00;;;;2078395;28;20209;-48
2022/02/18 04:03:30;;;;;;;9.17;2.57;;;;;20.90;99705.00;;;;2078645;28;20315;-48
2022/02/18 04:04:30;;;;;;;5.50;2.33;;;;;20.90;99713.00;;;;2078112;28;20271;-47
2022/02/18 04:05:31;;;;;;;5.00;2.42;;;;;20.90;99717.00;;;;2078592;28;20263;-48
2022/02/18 04:06:32;;;;;;;5.83;2.40;;;;;20.90;99721.00;;;;2078263;28;20270;-48
2022/02/18 04:07:32;;;;;;;4.30;2.27;;;;;20.90;99720.00;;;;2079412;28;20233;-49
2022/02/18 04:08:32;;;;;;;6.43;2.47;;;;;20.90;99720.00;;;;2079235;28;20209;-47
2022/02/18 04:09:33;;;;;;;6.47;2.50;;;;;20.90;99718.00;;;;2079334;28;20217;-47
2022/02/18 04:10:34;;;;;;;5.83;2.40;;;;;20.90;99710.00;;;;2078453;28;20224;-47
2022/02/18 04:11:35;;;;;;;5.18;2.75;;;;;20.90;99703.00;;;;2078096;28;20213;-46
2022/02/18 04:12:35;;;;;;;6.53;2.60;;;;;20.90;99706.00;;;;2081708;28;20201;-48
2022/02/18 04:13:35;;;;;;;4.30;2.40;;;;;20.90;99707.00;;;;2081562;28;20220;-48
2022/02/18 04:14:36;;;;;;;6.10;2.33;;;;;20.90;99701.00;;;;2087356;28;20579;-47
2022/02/18 04:15:36;;;;;;;6.87;2.73;;;;;20.90;99702.00;;;;2087601;28;20540;-48
2022/02/18 04:16:36;;;;;;;7.57;3.13;;;;;20.90;99698.00;;;;2081820;28;20211;-48
2022/02/18 04:17:37;;;;;;;5.60;2.67;;;;;20.90;99698.00;;;;2081853;28;20205;-47
2022/02/18 04:18:37;;;;;;;5.30;2.40;;;;;20.90;99697.00;;;;2082934;28;20338;-48
2022/02/18 04:19:38;;;;;;;6.00;2.53;;;;;20.90;99701.00;;;;2086749;28;20986;-46
2022/02/18 04:20:38;;;;;;;8.03;2.57;;;;;20.90;99704.00;;;;2085930;28;20207;-47
2022/02/18 04:21:39;;;;;;;6.27;2.60;;;;;20.90;99691.00;;;;2086437;28;20807;-48
2022/02/18 04:22:39;;;;;;;6.60;2.50;;;;;20.90;99688.00;;;;2087450;28;20343;-48
2022/02/18 04:23:39;;;;;;;5.60;2.40;;;;;20.90;99685.00;;;;2086958;28;20731;-46
2022/02/18 04:24:40;;;;;;;6.07;2.27;;;;;20.90;99682.00;;;;2087449;28;21403;-48
2022/02/18 04:25:40;;;;;;;6.87;2.00;;;;;20.90;99681.00;;;;2084161;28;20651;-48
2022/02/18 04:26:41;;;;;;;6.30;2.70;;;;;20.90;99683.00;;;;2087482;28;20221;-48
2022/02/18 04:27:41;;;;;;;6.63;3.17;;;;;20.90;99683.00;;;;2087666;28;20205;-48
2022/02/18 04:28:41;;;;;;;9.17;3.00;;;;;20.90;99691.00;;;;2087558;28;20267;-47
2022/02/18 04:29:42;;;;;;;5.70;2.57;;;;;20.90;99685.00;;;;2085093;28;20269;-48
2022/02/18 04:30:43;;;;;;;7.20;3.10;;;;;20.90;99681.00;;;;2078335;28;20237;-48
2022/02/18 04:31:43;;;;;;;5.13;2.10;;;;;20.90;99679.00;;;;2079118;28;20275;-48
2022/02/18 04:32:43;;;;;;;5.57;2.50;;;;;20.90;99679.00;;;;2078852;28;20220;-48
2022/02/18 04:33:44;;;;;;;6.20;2.60;;;;;20.90;99668.00;;;;2079034;28;20210;-48
2022/02/18 04:34:45;;;;;;;5.88;2.45;;;;;20.90;99668.00;;;;2078144;28;20218;-48
2022/02/18 04:35:45;;;;;;;7.20;2.90;;;;;20.90;99663.00;;;;2078059;28;20325;-48
2022/02/18 04:36:45;;;;;;;6.93;2.53;;;;;20.90;99661.00;;;;2078023;28;20767;-48
2022/02/18 04:37:46;;;;;;;5.70;2.50;;;;;20.90;99653.00;;;;2079218;28;20228;-48
2022/02/18 04:38:46;;;;;;;5.90;2.50;;;;;20.90;99658.00;;;;2079140;28;20252;-47
2022/02/18 04:39:47;;;;;;;6.20;2.70;;;;;20.90;99647.00;;;;2078949;28;20217;-47
2022/02/18 04:40:47;;;;;;;5.30;2.47;;;;;20.80;99649.00;;;;2078306;28;20271;-47
2022/02/18 04:41:47;;;;;;;5.67;2.50;;;;;20.90;99639.00;;;;2079134;28;20218;-48
2022/02/18 04:42:48;;;;;;;5.03;2.43;;;;;20.80;99627.00;;;;2082912;28;20886;-48
2022/02/18 04:43:48;;;;;;;6.30;2.47;;;;;20.90;99619.00;;;;2075335;28;20311;-48
2022/02/18 04:44:49;;;;;;;5.23;2.40;;;;;20.90;99622.00;;;;2079108;28;20218;-46
2022/02/18 04:45:49;;;;;;;5.17;2.40;;;;;20.80;99619.00;;;;2078722;28;20227;-47
2022/02/18 04:46:49;;;;;;;5.83;2.23;;;;;20.80;99624.00;;;;2079136;28;20209;-47
2022/02/18 04:47:50;;;;;;;5.70;2.63;;;;;20.80;99614.00;;;;2078280;28;20803;-48
2022/02/18 04:48:52;;;;;;;5.00;2.30;;;;;20.80;99621.00;;;;2078278;28;20593;-47
2022/02/18 04:49:52;;;;;;;6.18;2.60;;;;;20.80;99609.00;;;;2078390;28;20217;-49
2022/02/18 04:50:52;;;;;;;4.00;1.90;;;;;20.80;99608.00;;;;2081373;28;20216;-47
2022/02/18 04:51:55;;;;;;;5.10;2.60;;;;;20.80;99607.00;;;;2086853;28;20327;-49
2022/02/18 04:52:56;;;;;;;5.18;2.67;;;;;20.80;99600.00;;;;2087357;28;20220;-47
2022/02/18 04:53:56;;;;;;;5.40;2.57;;;;;20.80;99600.00;;;;2086895;28;20221;-48
2022/02/18 04:54:57;;;;;;;3.70;2.20;;;;;20.80;99590.00;;;;2086785;28;20220;-48
2022/02/18 04:55:57;;;;;;;5.60;2.60;;;;;20.80;99589.00;;;;2086112;28;20221;-48
2022/02/18 04:56:58;;;;;;;5.07;2.60;;;;;20.80;99596.00;;;;2087181;28;20634;-47
2022/02/18 04:57:58;;;;;;;7.03;2.77;;;;;20.80;99587.00;;;;2085933;28;20637;-49
2022/02/18 04:58:59;;;;;;;4.60;2.50;;;;;20.80;99578.00;;;;2087299;28;20225;-48
2022/02/18 04:59:59;;;;;;;5.33;2.00;;;;;20.80;99584.00;;;;2086858;28;20267;-48
2022/02/18 05:01:00;;;;;;;7.30;2.80;;;;;20.80;99579.00;;;;2086129;28;20217;-50
2022/02/18 05:02:01;;;;;;;7.10;2.80;;;;;20.80;99568.00;;;;2086959;28;20236;-48
2022/02/18 05:03:01;;;;;;;6.83;2.20;;;;;20.80;99570.00;;;;2086342;28;20216;-48